createdAt,value
2022-07-26T00:01:02.490Z,24.07
2022-07-26T00:03:30.531Z,24.02
2022-07-26T00:05:59.486Z,23.99
2022-07-26T00:08:27.864Z,23.93
2022-07-26T00:10:56.555Z,23.93
2022-07-26T00:13:24.781Z,23.91
2022-07-26T00:15:58.332Z,23.92
2022-07-26T00:18:26.895Z,23.89
2022-07-26T00:20:55.633Z,23.85
2022-07-26T00:23:23.622Z,23.81
2022-07-26T00:25:51.660Z,23.79
2022-07-26T00:28:19.811Z,23.77
2022-07-26T00:30:48.382Z,23.77
2022-07-26T00:33:16.518Z,23.75
2022-07-26T00:35:45.014Z,23.71
2022-07-26T00:38:12.873Z,23.69
2022-07-26T00:40:40.994Z,23.68
2022-07-26T00:43:09.263Z,23.66
2022-07-26T00:45:37.656Z,23.63
2022-07-26T00:48:06.382Z,23.59
2022-07-26T00:50:35.001Z,23.54
2022-07-26T00:53:03.267Z,23.55
2022-07-26T00:55:31.866Z,23.55
2022-07-26T00:58:01.913Z,23.52
2022-07-26T01:00:30.336Z,23.49
2022-07-26T01:03:00.599Z,23.45
2022-07-26T01:05:29.457Z,23.45
2022-07-26T01:07:58.237Z,23.44
2022-07-26T01:10:26.440Z,23.41
2022-07-26T01:12:54.391Z,23.39
2022-07-26T01:15:23.614Z,23.35
2022-07-26T01:17:51.514Z,23.29
2022-07-26T01:20:19.739Z,23.26
2022-07-26T01:22:47.912Z,23.22
2022-07-26T01:25:16.238Z,23.17
2022-07-26T01:27:44.371Z,23.11
2022-07-26T01:30:13.237Z,23.06
2022-07-26T01:32:41.438Z,23.02
2022-07-26T01:35:10.614Z,22.95
2022-07-26T01:37:38.889Z,22.89
2022-07-26T01:40:07.434Z,22.83
2022-07-26T01:42:40.775Z,22.78
2022-07-26T01:45:10.033Z,22.71
2022-07-26T01:47:39.078Z,22.68
2022-07-26T01:50:08.760Z,22.63
2022-07-26T01:52:37.419Z,22.58
2022-07-26T01:55:05.772Z,22.53
2022-07-26T01:57:34.136Z,22.48
2022-07-26T02:00:02.188Z,22.41
2022-07-26T02:02:35.398Z,22.38
2022-07-26T02:05:04.626Z,22.35
2022-07-26T02:07:43.071Z,22.32
2022-07-26T02:10:14.708Z,22.28
2022-07-26T02:12:43.086Z,22.25
2022-07-26T02:15:14.600Z,22.19
2022-07-26T02:17:43.592Z,22.16
2022-07-26T02:20:11.664Z,22.12
2022-07-26T02:22:39.988Z,22.10
2022-07-26T02:25:08.517Z,22.08
2022-07-26T02:27:36.469Z,22.05
2022-07-26T02:30:04.972Z,22.02
2022-07-26T02:32:33.520Z,22.00
2022-07-26T02:35:02.160Z,21.97
2022-07-26T02:37:30.755Z,21.91
2022-07-26T02:40:04.411Z,21.87
2022-07-26T02:42:32.872Z,21.83
2022-07-26T02:45:00.871Z,21.80
2022-07-26T02:47:29.229Z,21.77
2022-07-26T02:49:57.159Z,21.74
2022-07-26T02:52:25.088Z,21.71
2022-07-26T02:54:53.309Z,21.69
2022-07-26T02:57:21.493Z,21.67
2022-07-26T02:59:49.358Z,21.67
2022-07-26T03:02:17.462Z,21.64
2022-07-26T03:04:45.460Z,21.65
2022-07-26T03:07:14.067Z,21.65
2022-07-26T03:09:42.714Z,21.66
2022-07-26T03:12:10.569Z,21.66
2022-07-26T03:14:38.643Z,21.66
2022-07-26T03:17:06.715Z,21.65
2022-07-26T03:19:34.786Z,21.65
2022-07-26T03:22:02.927Z,21.64
2022-07-26T03:24:30.890Z,21.65
2022-07-26T03:26:59.066Z,21.64
2022-07-26T03:29:27.079Z,21.64
2022-07-26T03:31:55.433Z,21.61
2022-07-26T03:34:23.697Z,21.60
2022-07-26T03:36:52.010Z,21.61
2022-07-26T03:39:20.457Z,21.60
2022-07-26T03:41:48.641Z,21.61
2022-07-26T03:44:16.788Z,21.60
2022-07-26T03:46:45.100Z,21.61
2022-07-26T03:49:16.613Z,21.63
2022-07-26T03:51:45.556Z,21.69
2022-07-26T03:54:13.575Z,21.73
2022-07-26T03:56:41.891Z,21.82
2022-07-26T03:59:11.329Z,21.88
2022-07-26T04:01:43.817Z,21.94
2022-07-26T04:04:13.759Z,21.98
2022-07-26T04:06:42.045Z,22.01
2022-07-26T04:09:11.845Z,22.07
2022-07-26T04:11:40.545Z,22.10
2022-07-26T04:14:09.237Z,22.15
2022-07-26T04:16:42.963Z,22.22
2022-07-26T04:19:11.641Z,22.31
2022-07-26T04:21:40.186Z,22.42
2022-07-26T04:24:08.635Z,22.54
2022-07-26T04:26:37.073Z,22.70
2022-07-26T04:29:05.002Z,22.88
2022-07-26T04:31:36.517Z,23.08
2022-07-26T04:34:05.113Z,23.27
2022-07-26T04:36:33.811Z,23.60
2022-07-26T04:39:02.078Z,23.88
2022-07-26T04:41:30.502Z,24.03
2022-07-26T04:43:58.354Z,24.17
2022-07-26T04:46:26.492Z,24.36
2022-07-26T04:48:55.097Z,24.61
2022-07-26T04:51:23.126Z,24.84
2022-07-26T04:53:51.474Z,25.03
2022-07-26T04:56:19.611Z,25.21
2022-07-26T04:58:48.147Z,25.39
2022-07-26T05:01:16.489Z,25.56
2022-07-26T05:03:44.558Z,25.86
2022-07-26T05:06:12.586Z,26.03
2022-07-26T05:08:43.233Z,26.16
2022-07-26T05:11:11.563Z,26.28
2022-07-26T05:13:39.714Z,26.44
2022-07-26T05:16:11.651Z,26.57
2022-07-26T05:18:49.285Z,26.60
2022-07-26T05:21:18.875Z,26.69
2022-07-26T05:23:46.920Z,26.70
2022-07-26T05:26:15.698Z,26.70
2022-07-26T05:28:44.076Z,26.80
2022-07-26T05:31:12.397Z,26.87
2022-07-26T05:33:40.458Z,27.00
2022-07-26T05:36:08.842Z,27.15
2022-07-26T05:38:37.613Z,27.17
2022-07-26T05:41:05.967Z,27.16
2022-07-26T05:43:40.582Z,27.17
2022-07-26T05:46:13.676Z,27.19
2022-07-26T05:48:42.638Z,27.22
2022-07-26T05:51:11.385Z,27.29
2022-07-26T05:53:40.076Z,27.36
2022-07-26T05:56:08.560Z,27.46
2022-07-26T05:58:36.916Z,27.54
2022-07-26T06:01:05.128Z,27.62
2022-07-26T06:03:33.394Z,27.72
2022-07-26T06:06:01.332Z,27.73
2022-07-26T06:08:29.762Z,27.82
2022-07-26T06:10:57.898Z,27.94
2022-07-26T06:13:25.924Z,28.11
2022-07-26T06:15:54.457Z,28.24
2022-07-26T06:18:22.873Z,28.34
2022-07-26T06:20:52.280Z,28.44
2022-07-26T06:23:31.871Z,28.61
2022-07-26T06:26:03.953Z,28.79
2022-07-26T06:28:33.184Z,28.97
2022-07-26T06:31:01.846Z,29.16
2022-07-26T06:33:30.179Z,29.33
2022-07-26T06:35:59.518Z,29.44
2022-07-26T06:38:27.934Z,29.55
2022-07-26T06:40:56.057Z,29.66
2022-07-26T06:43:23.950Z,29.72
2022-07-26T06:45:52.229Z,29.82
2022-07-26T06:48:20.280Z,29.91
2022-07-26T06:50:48.749Z,30.00
2022-07-26T06:53:16.898Z,30.10
2022-07-26T06:55:45.156Z,30.18
2022-07-26T06:58:14.288Z,30.28
2022-07-26T07:00:42.543Z,30.33
2022-07-26T07:03:10.489Z,30.45
2022-07-26T07:05:38.621Z,30.56
2022-07-26T07:08:07.403Z,30.68
2022-07-26T07:10:36.125Z,30.77
2022-07-26T07:13:04.418Z,30.94
2022-07-26T07:15:33.187Z,31.08
2022-07-26T07:18:01.758Z,31.26
2022-07-26T07:20:30.186Z,31.44
2022-07-26T07:22:58.702Z,31.61
2022-07-26T07:25:30.732Z,31.80
2022-07-26T07:27:59.616Z,31.98
2022-07-26T07:30:28.067Z,32.14
2022-07-26T07:32:56.667Z,32.34
2022-07-26T07:35:25.107Z,32.51
2022-07-26T07:38:00.649Z,32.68
2022-07-26T07:40:30.511Z,32.91
2022-07-26T07:42:59.303Z,33.14
2022-07-26T07:45:27.400Z,33.42
2022-07-26T07:47:56.029Z,33.72
2022-07-26T07:50:28.471Z,33.95
2022-07-26T07:52:59.279Z,34.26
2022-07-26T07:55:44.033Z,34.53
2022-07-26T07:58:17.224Z,34.73
2022-07-26T08:00:48.140Z,34.99
2022-07-26T08:03:18.647Z,35.25
2022-07-26T08:05:49.657Z,35.49
2022-07-26T08:08:22.063Z,35.65
2022-07-26T08:10:52.757Z,35.79
2022-07-26T08:13:22.477Z,35.89
2022-07-26T08:15:51.544Z,35.91
2022-07-26T08:18:22.581Z,35.94
2022-07-26T08:20:52.594Z,36.01
2022-07-26T08:23:21.714Z,36.12
2022-07-26T08:26:00.661Z,36.28
2022-07-26T08:28:48.340Z,36.42
2022-07-26T08:31:17.265Z,36.52
2022-07-26T08:33:46.871Z,36.60
2022-07-26T08:36:17.291Z,36.74
2022-07-26T08:38:47.096Z,36.86
2022-07-26T08:41:18.243Z,36.99
2022-07-26T08:43:52.102Z,37.03
2022-07-26T08:46:25.944Z,36.98
2022-07-26T08:48:56.773Z,36.94
2022-07-26T08:51:26.466Z,36.95
2022-07-26T08:54:04.696Z,36.95
2022-07-26T08:56:36.071Z,37.01
2022-07-26T08:59:20.193Z,37.11
2022-07-26T09:02:00.674Z,37.26
2022-07-26T09:04:33.192Z,37.47
2022-07-26T09:07:17.664Z,37.54
2022-07-26T09:10:01.286Z,37.56
2022-07-26T09:12:30.940Z,37.53
2022-07-26T09:15:01.313Z,37.46
2022-07-26T09:17:41.961Z,37.38
2022-07-26T09:20:24.250Z,37.27
2022-07-26T09:23:07.587Z,37.15
2022-07-26T09:25:41.054Z,37.16
2022-07-26T09:28:22.941Z,37.30
2022-07-26T09:30:56.972Z,37.42
2022-07-26T09:33:25.377Z,37.48
2022-07-26T09:36:21.970Z,37.48
2022-07-26T09:38:56.229Z,37.45
2022-07-26T09:41:37.099Z,37.42
2022-07-26T09:44:08.563Z,37.51
2022-07-26T09:47:00.310Z,37.65
2022-07-26T09:49:40.605Z,37.76
2022-07-26T09:52:17.281Z,37.74
2022-07-26T09:54:47.666Z,37.78
2022-07-26T09:57:18.481Z,37.91
2022-07-26T09:59:47.778Z,38.02
2022-07-26T10:02:16.116Z,38.11
2022-07-26T10:04:44.484Z,38.16
2022-07-26T10:07:12.566Z,38.13
2022-07-26T10:09:54.919Z,38.19
2022-07-26T10:12:30.430Z,38.33
2022-07-26T10:14:58.640Z,38.49
2022-07-26T10:17:31.488Z,38.49
2022-07-26T10:20:09.331Z,38.43
2022-07-26T10:22:50.737Z,38.34
2022-07-26T10:25:19.055Z,38.27
2022-07-26T10:27:51.850Z,38.20
2022-07-26T10:30:20.213Z,38.17
2022-07-26T10:32:51.394Z,38.21
2022-07-26T10:35:40.407Z,38.25
2022-07-26T10:38:18.454Z,38.30
2022-07-26T10:41:00.639Z,38.37
2022-07-26T10:43:40.782Z,38.34
2022-07-26T10:46:18.823Z,38.37
2022-07-26T10:49:07.783Z,38.46
2022-07-26T10:51:38.365Z,38.48
2022-07-26T10:54:10.815Z,38.55
2022-07-26T10:56:39.894Z,38.66
2022-07-26T10:59:08.057Z,38.76
2022-07-26T11:01:38.005Z,38.76
2022-07-26T11:04:07.955Z,38.65
2022-07-26T11:06:36.491Z,38.64
2022-07-26T11:09:11.493Z,38.74
2022-07-26T11:11:39.930Z,38.86
2022-07-26T11:14:18.114Z,38.98
2022-07-26T11:16:50.962Z,39.16
2022-07-26T11:19:27.593Z,39.26
2022-07-26T11:22:01.562Z,39.23
2022-07-26T11:24:29.573Z,39.24
2022-07-26T11:27:03.505Z,39.21
2022-07-26T11:29:38.203Z,39.12
2022-07-26T11:32:18.150Z,39.13
2022-07-26T11:34:47.206Z,39.16
2022-07-26T11:37:15.330Z,39.16
2022-07-26T11:39:44.055Z,39.16
2022-07-26T11:42:15.193Z,39.19
2022-07-26T11:44:44.977Z,39.24
2022-07-26T11:47:20.296Z,39.27
2022-07-26T11:50:00.015Z,39.25
2022-07-26T11:52:32.053Z,39.20
2022-07-26T11:55:00.739Z,39.19
2022-07-26T11:57:31.189Z,39.28
2022-07-26T12:00:00.509Z,39.40
2022-07-26T12:02:40.336Z,39.41
2022-07-26T12:05:18.844Z,39.39
2022-07-26T12:07:56.357Z,39.42
2022-07-26T12:10:25.161Z,39.43
2022-07-26T12:13:12.872Z,39.47
2022-07-26T12:15:48.760Z,39.56
2022-07-26T12:18:30.880Z,39.62
2022-07-26T12:21:07.228Z,39.62
2022-07-26T12:23:49.880Z,39.64
2022-07-26T12:26:30.761Z,39.81
2022-07-26T12:29:21.974Z,39.99
2022-07-26T12:32:12.753Z,40.21
2022-07-26T12:34:55.528Z,40.44
2022-07-26T12:37:33.686Z,40.67
2022-07-26T12:40:12.010Z,40.75
2022-07-26T12:42:44.257Z,40.80
2022-07-26T12:45:13.775Z,40.66
2022-07-26T12:47:44.573Z,40.35
2022-07-26T12:50:13.877Z,40.23
2022-07-26T12:52:42.299Z,40.14
2022-07-26T12:55:16.386Z,40.08
2022-07-26T12:57:47.645Z,40.04
2022-07-26T13:00:18.615Z,39.97
2022-07-26T13:02:47.769Z,40.01
2022-07-26T13:05:15.903Z,40.08
2022-07-26T13:07:43.970Z,40.15
2022-07-26T13:13:00.775Z,40.28
2022-07-26T13:15:35.270Z,40.29
2022-07-26T13:18:08.374Z,40.21
2022-07-26T13:20:38.730Z,40.20
2022-07-26T13:23:13.840Z,40.23
2022-07-26T13:25:43.889Z,40.25
2022-07-26T13:28:11.943Z,40.31
2022-07-26T13:30:43.169Z,40.32
2022-07-26T13:33:11.903Z,40.29
2022-07-26T13:35:42.751Z,40.29
2022-07-26T13:38:11.324Z,40.27
2022-07-26T13:40:39.761Z,40.19
2022-07-26T13:43:07.960Z,40.21
2022-07-26T13:45:35.923Z,40.16
2022-07-26T13:48:04.005Z,40.14
2022-07-26T13:50:31.862Z,40.05
2022-07-26T13:53:00.082Z,39.97
2022-07-26T13:55:28.278Z,39.87
2022-07-26T13:57:57.880Z,39.89
2022-07-26T14:00:28.803Z,39.83
2022-07-26T14:02:58.770Z,39.87
2022-07-26T14:05:28.061Z,39.89
2022-07-26T14:07:57.962Z,39.84
2022-07-26T14:10:26.393Z,39.79
2022-07-26T14:12:54.667Z,39.69
2022-07-26T14:15:23.716Z,39.53
2022-07-26T14:17:52.801Z,39.47
2022-07-26T14:20:21.687Z,39.53
2022-07-26T14:22:53.756Z,39.64
2022-07-26T14:25:26.563Z,39.62
2022-07-26T14:27:55.815Z,39.53
2022-07-26T14:30:24.186Z,39.39
2022-07-26T14:32:52.136Z,39.23
2022-07-26T14:35:20.077Z,39.23
2022-07-26T14:37:48.286Z,39.20
2022-07-26T14:40:17.711Z,39.06
2022-07-26T14:42:46.767Z,38.91
2022-07-26T14:45:15.038Z,38.84
2022-07-26T14:47:43.536Z,38.77
2022-07-26T14:50:14.073Z,38.64
2022-07-26T14:52:45.135Z,38.53
2022-07-26T14:55:15.317Z,38.58
2022-07-26T14:57:43.688Z,38.58
2022-07-26T15:00:16.971Z,38.62
2022-07-26T15:02:48.172Z,38.55
2022-07-26T15:05:17.848Z,38.51
2022-07-26T15:07:46.413Z,38.50
2022-07-26T15:10:15.210Z,38.53
2022-07-26T15:12:44.145Z,38.57
2022-07-26T15:15:12.266Z,38.60
2022-07-26T15:17:40.879Z,38.59
2022-07-26T15:20:09.061Z,38.65
2022-07-26T15:22:37.163Z,38.69
2022-07-26T15:25:05.602Z,38.71
2022-07-26T15:27:33.868Z,38.72
2022-07-26T15:30:04.972Z,38.73
2022-07-26T15:32:36.836Z,38.69
2022-07-26T15:35:05.760Z,38.57
2022-07-26T15:37:34.406Z,38.48
2022-07-26T15:40:02.570Z,38.42
2022-07-26T15:42:31.881Z,38.34
2022-07-26T15:44:59.917Z,38.17
2022-07-26T15:47:53.019Z,37.99
2022-07-26T15:50:19.126Z,37.70
2022-07-26T15:52:48.761Z,37.59
2022-07-26T15:55:19.319Z,37.55
2022-07-26T15:57:47.669Z,37.41
2022-07-26T16:00:16.443Z,37.23
2022-07-26T16:02:44.814Z,37.17
2022-07-26T16:05:12.764Z,37.14
2022-07-26T16:07:42.051Z,37.02
2022-07-26T16:10:12.398Z,36.67
2022-07-26T16:12:42.041Z,36.29
2022-07-26T16:15:11.339Z,35.97
2022-07-26T16:17:40.166Z,35.49
2022-07-26T16:20:09.872Z,34.89
2022-07-26T16:22:41.369Z,34.38
2022-07-26T16:25:13.198Z,34.06
2022-07-26T16:27:43.143Z,33.79
2022-07-26T16:30:13.440Z,33.53
2022-07-26T16:32:42.479Z,33.28
2022-07-26T16:35:11.034Z,33.06
2022-07-26T16:37:40.077Z,32.78
2022-07-26T16:40:09.509Z,32.60
2022-07-26T16:42:37.334Z,32.42
2022-07-26T16:45:06.033Z,32.22
2022-07-26T16:47:33.995Z,32.00
2022-07-26T16:50:02.695Z,31.82
2022-07-26T16:52:30.661Z,31.73
2022-07-26T16:55:00.410Z,31.56
2022-07-26T16:57:28.839Z,31.45
2022-07-26T16:59:56.954Z,31.34
2022-07-26T17:02:25.037Z,31.27
2022-07-26T17:04:56.073Z,31.23
2022-07-26T17:07:25.788Z,31.18
2022-07-26T17:09:57.045Z,31.01
2022-07-26T17:12:25.367Z,30.92
2022-07-26T17:14:53.574Z,30.87
2022-07-26T17:17:21.789Z,30.83
2022-07-26T17:19:50.500Z,30.66
2022-07-26T17:22:19.317Z,30.53
2022-07-26T17:24:48.322Z,30.38
2022-07-26T17:27:17.195Z,30.23
2022-07-26T17:29:45.472Z,30.16
2022-07-26T17:32:13.830Z,30.12
2022-07-26T17:34:42.279Z,30.05
2022-07-26T17:37:10.695Z,29.96
2022-07-26T17:39:51.746Z,29.88
2022-07-26T17:42:22.776Z,29.83
2022-07-26T17:44:51.430Z,29.81
2022-07-26T17:47:28.448Z,29.77
2022-07-26T17:52:51.521Z,29.67
2022-07-26T17:55:20.556Z,29.62
2022-07-26T17:57:49.935Z,29.61
2022-07-26T18:00:21.017Z,29.53
2022-07-26T18:02:49.599Z,29.53
2022-07-26T18:05:19.099Z,29.57
2022-07-26T18:07:47.501Z,29.59
2022-07-26T18:10:16.073Z,29.59
2022-07-26T18:12:44.430Z,29.49
2022-07-26T18:15:12.986Z,29.44
2022-07-26T18:17:41.108Z,29.44
2022-07-26T18:20:10.046Z,29.41
2022-07-26T18:22:38.446Z,29.42
2022-07-26T18:25:07.724Z,29.45
2022-07-26T18:27:35.991Z,29.47
2022-07-26T18:30:05.457Z,29.46
2022-07-26T18:32:34.949Z,29.38
2022-07-26T18:35:03.518Z,29.28
2022-07-26T18:37:31.790Z,29.23
2022-07-26T18:40:00.181Z,29.21
2022-07-26T18:42:28.174Z,29.18
2022-07-26T18:44:56.227Z,29.05
2022-07-26T18:47:24.783Z,28.90
2022-07-26T18:49:52.621Z,28.80
2022-07-26T18:52:28.422Z,28.68
2022-07-26T18:55:12.261Z,28.58
2022-07-26T18:57:42.508Z,28.53
2022-07-26T19:00:17.590Z,28.44
2022-07-26T19:02:47.063Z,28.40
2022-07-26T19:05:16.836Z,28.40
2022-07-26T19:07:46.194Z,28.36
2022-07-26T19:10:15.194Z,28.34
2022-07-26T19:12:46.353Z,28.31
2022-07-26T19:15:17.150Z,28.31
2022-07-26T19:17:45.506Z,28.30
2022-07-26T19:20:13.978Z,28.32
2022-07-26T19:22:44.985Z,28.34
2022-07-26T19:25:14.778Z,28.37
2022-07-26T19:27:43.829Z,28.36
2022-07-26T19:30:12.588Z,28.39
2022-07-26T19:32:40.791Z,28.42
2022-07-26T19:35:09.757Z,28.40
2022-07-26T19:37:37.769Z,28.33
2022-07-26T19:40:06.456Z,28.28
2022-07-26T19:42:34.639Z,28.23
2022-07-26T19:45:02.510Z,28.16
2022-07-26T19:47:31.021Z,28.10
2022-07-26T19:49:59.334Z,27.98
2022-07-26T19:52:28.022Z,27.92
2022-07-26T19:54:56.771Z,27.88
2022-07-26T19:57:24.918Z,27.85
2022-07-26T19:59:54.638Z,27.83
2022-07-26T20:02:23.217Z,27.78
2022-07-26T20:04:51.338Z,27.76
2022-07-26T20:07:19.965Z,27.68
2022-07-26T20:09:49.616Z,27.64
2022-07-26T20:12:19.727Z,27.60
2022-07-26T20:14:47.988Z,27.56
2022-07-26T20:17:16.663Z,27.49
2022-07-26T20:19:44.882Z,27.42
2022-07-26T20:22:13.064Z,27.34
2022-07-26T20:24:41.024Z,27.27
2022-07-26T20:27:09.138Z,27.18
2022-07-26T20:29:37.217Z,27.06
2022-07-26T20:32:06.027Z,26.98
2022-07-26T20:34:35.241Z,26.85
2022-07-26T20:37:03.264Z,26.72
2022-07-26T20:39:31.385Z,26.59
2022-07-26T20:41:59.531Z,26.51
2022-07-26T20:44:29.962Z,26.49
2022-07-26T20:46:57.920Z,26.50
2022-07-26T20:49:26.399Z,26.47
2022-07-26T20:51:54.683Z,26.43
2022-07-26T20:54:22.769Z,26.42
2022-07-26T20:56:51.097Z,26.43
2022-07-26T20:59:19.274Z,26.45
2022-07-26T21:01:47.627Z,26.38
2022-07-26T21:04:15.854Z,26.33
2022-07-26T21:06:44.200Z,26.29
2022-07-26T21:09:12.640Z,26.32
2022-07-26T21:11:40.858Z,26.35
2022-07-26T21:14:08.881Z,26.33
2022-07-26T21:16:37.247Z,26.29
2022-07-26T21:19:06.033Z,26.25
2022-07-26T21:21:36.448Z,26.27
2022-07-26T21:24:06.378Z,26.26
2022-07-26T21:26:35.219Z,26.25
2022-07-26T21:29:03.728Z,26.26
2022-07-26T21:31:32.079Z,26.28
2022-07-26T21:34:00.069Z,26.30
2022-07-26T21:36:28.621Z,26.33
2022-07-26T21:38:56.690Z,26.34
2022-07-26T21:41:24.587Z,26.37
2022-07-26T21:43:53.150Z,26.37
2022-07-26T21:46:21.350Z,26.36
2022-07-26T21:48:49.747Z,26.36
2022-07-26T21:51:17.719Z,26.34
2022-07-26T21:53:45.842Z,26.30
2022-07-26T21:56:14.061Z,26.27
2022-07-26T21:58:42.405Z,26.22
2022-07-26T22:01:12.543Z,26.20
2022-07-26T22:03:42.058Z,26.19
2022-07-26T22:06:10.534Z,26.18
2022-07-26T22:08:38.929Z,26.08
2022-07-26T22:11:06.847Z,25.96
2022-07-26T22:13:35.295Z,25.85
2022-07-26T22:16:03.742Z,25.78
2022-07-26T22:18:31.995Z,25.70
2022-07-26T22:21:01.096Z,25.65
2022-07-26T22:23:32.180Z,25.59
2022-07-26T22:26:02.189Z,25.48
2022-07-26T22:28:31.204Z,25.42
2022-07-26T22:30:59.637Z,25.43
2022-07-26T22:33:27.722Z,25.37
2022-07-26T22:35:55.965Z,25.33
2022-07-26T22:38:24.392Z,25.32
2022-07-26T22:40:52.473Z,25.31
2022-07-26T22:43:21.040Z,25.31
2022-07-26T22:45:48.993Z,25.27
2022-07-26T22:48:17.509Z,25.22
2022-07-26T22:50:45.608Z,25.23
2022-07-26T22:53:13.478Z,25.27
2022-07-26T22:55:42.154Z,25.21
2022-07-26T22:58:10.300Z,25.09
2022-07-26T23:00:38.576Z,25.02
2022-07-26T23:03:09.701Z,25.00
2022-07-26T23:05:49.373Z,25.01
2022-07-26T23:08:45.068Z,24.95
2022-07-26T23:11:07.008Z,24.87
2022-07-26T23:13:35.121Z,24.83
2022-07-26T23:16:03.660Z,24.83
2022-07-26T23:18:33.414Z,24.71
2022-07-26T23:21:03.871Z,24.63
2022-07-26T23:23:32.270Z,24.62
2022-07-26T23:26:00.682Z,24.62
2022-07-26T23:28:37.187Z,24.59
2022-07-26T23:31:07.951Z,24.60
2022-07-26T23:33:52.702Z,24.58
2022-07-26T23:36:27.919Z,24.54
2022-07-26T23:38:58.032Z,24.46
2022-07-26T23:41:27.423Z,24.46
2022-07-26T23:43:56.335Z,24.42
2022-07-26T23:46:25.248Z,24.44
2022-07-26T23:48:54.801Z,24.40
2022-07-26T23:51:25.948Z,24.37
2022-07-26T23:53:54.827Z,24.37
2022-07-26T23:56:23.239Z,24.34
2022-07-26T23:58:51.423Z,24.30
